Time;durP1;ratioP1;P1;durP2;ratioP2;P2;SDS_P1;SDS_P2;PMS_P1;PMS_P2;Temp;Humidity;BMP_temperature;BMP_pressure;BME280_temperature;BME280_humidity;BME280_pressure;Samples;Min_cycle;Max_cycle;Signal;HPM_P1;HPM_P2
2021/04/25 00:01:01;;;;;;;12.47;6.30;;;;;;;;;;4999122;28;20216;-63
2021/04/25 00:03:27;;;;;;;8.97;7.47;;;;;;;;;;5005324;28;20188;-63
2021/04/25 00:05:53;;;;;;;10.93;6.83;;;;;;;;;;4999493;28;20694;-61
2021/04/25 00:08:19;;;;;;;10.07;6.50;;;;;;;;;;5003832;28;20213;-62
2021/04/25 00:10:45;;;;;;;8.70;6.23;;;;;;;;;;5001192;28;20224;-63
2021/04/25 00:13:11;;;;;;;8.37;5.93;;;;;;;;;;5002455;28;20192;-63
2021/04/25 00:15:37;;;;;;;10.80;6.40;;;;;;;;;;4999349;28;20188;-62
2021/04/25 00:18:04;;;;;;;9.33;6.40;;;;;;;;;;5000835;28;20216;-63
2021/04/25 00:20:30;;;;;;;7.67;5.93;;;;;;;;;;5002061;28;20596;-62
2021/04/25 00:22:56;;;;;;;10.23;6.27;;;;;;;;;;5002990;28;20193;-62
2021/04/25 00:25:22;;;;;;;9.70;6.57;;;;;;;;;;4998597;28;20733;-63
2021/04/25 00:27:48;;;;;;;7.43;6.13;;;;;;;;;;4998277;28;20288;-62
2021/04/25 00:30:17;;;;;;;10.50;5.63;;;;;;;;;;5003570;28;20192;-62
2021/04/25 00:32:43;;;;;;;9.57;6.50;;;;;;;;;;5001942;28;20238;-62
2021/04/25 00:35:09;;;;;;;10.03;6.30;;;;;;;;;;4998347;28;20182;-62
2021/04/25 00:37:35;;;;;;;9.13;5.47;;;;;;;;;;5005557;28;20281;-61
2021/04/25 00:40:01;;;;;;;7.20;5.83;;;;;;;;;;4999489;28;20260;-63
2021/04/25 00:42:28;;;;;;;8.07;6.53;;;;;;;;;;5003515;28;20215;-62
2021/04/25 00:44:54;;;;;;;7.87;5.30;;;;;;;;;;5004096;28;20782;-61
2021/04/25 00:47:20;;;;;;;9.13;6.27;;;;;;;;;;5003683;28;20192;-62
2021/04/25 00:49:46;;;;;;;7.50;5.90;;;;;;;;;;5001375;28;20715;-63
2021/04/25 00:52:13;;;;;;;9.40;6.10;;;;;;;;;;5003688;28;20231;-62
2021/04/25 00:54:40;;;;;;;7.20;5.83;;;;;;;;;;5010464;28;20181;-63
2021/04/25 00:57:07;;;;;;;10.23;6.20;;;;;;;;;;5003094;28;20239;-63
2021/04/25 00:59:33;;;;;;;9.27;6.77;;;;;;;;;;4998613;28;20213;-61
2021/04/25 01:01:59;;;;;;;10.10;6.70;;;;;;;;;;4999594;28;20188;-62
2021/04/25 01:04:25;;;;;;;9.10;6.50;;;;;;;;;;5000164;28;20200;-62
2021/04/25 01:06:51;;;;;;;9.53;6.20;;;;;;;;;;5006435;28;20193;-63
2021/04/25 01:09:17;;;;;;;8.97;5.47;;;;;;;;;;5010232;28;20711;-63
2021/04/25 01:11:43;;;;;;;9.07;6.00;;;;;;;;;;5011677;28;20208;-63
2021/04/25 01:14:09;;;;;;;8.73;6.40;;;;;;;;;;5006654;28;20280;-63
2021/04/25 01:16:35;;;;;;;8.30;6.40;;;;;;;;;;5006068;28;20625;-64
2021/04/25 01:19:01;;;;;;;11.67;5.97;;;;;;;;;;5002439;28;20292;-63
2021/04/25 01:21:27;;;;;;;8.30;5.53;;;;;;;;;;5005281;28;20221;-62
2021/04/25 01:23:53;;;;;;;8.17;5.80;;;;;;;;;;5007281;28;20213;-63
2021/04/25 01:26:19;;;;;;;10.20;6.13;;;;;;;;;;5002174;28;20689;-62
2021/04/25 01:28:45;;;;;;;7.80;6.03;;;;;;;;;;5002313;28;20219;-63
2021/04/25 01:31:11;;;;;;;8.13;6.60;;;;;;;;;;5012562;28;20209;-63
2021/04/25 01:33:37;;;;;;;7.80;6.00;;;;;;;;;;5008626;28;20691;-61
2021/04/25 01:36:03;;;;;;;9.03;6.53;;;;;;;;;;4998983;28;20192;-61
2021/04/25 01:38:30;;;;;;;9.13;6.47;;;;;;;;;;5008865;28;20211;-61
2021/04/25 01:40:56;;;;;;;10.17;6.43;;;;;;;;;;5005878;28;20189;-62
2021/04/25 01:43:22;;;;;;;8.53;6.93;;;;;;;;;;5003493;28;20185;-62
2021/04/25 01:45:48;;;;;;;9.87;6.30;;;;;;;;;;5009701;28;20598;-62
2021/04/25 01:48:14;;;;;;;9.97;6.33;;;;;;;;;;5004815;28;20204;-61
2021/04/25 01:50:40;;;;;;;11.50;6.83;;;;;;;;;;5002542;28;20249;-62
2021/04/25 01:53:10;;;;;;;7.83;5.80;;;;;;;;;;5009821;28;20248;-62
2021/04/25 01:55:36;;;;;;;7.03;5.97;;;;;;;;;;5004409;28;20199;-62
2021/04/25 01:58:02;;;;;;;9.40;6.30;;;;;;;;;;5003315;28;20212;-62
2021/04/25 02:00:34;;;;;;;8.77;5.90;;;;;;;;;;5007275;28;20648;-62
2021/04/25 02:03:01;;;;;;;8.27;6.00;;;;;;;;;;5005384;28;20559;-61
2021/04/25 02:05:27;;;;;;;9.23;6.47;;;;;;;;;;5007730;28;20193;-61
2021/04/25 02:07:53;;;;;;;9.57;5.73;;;;;;;;;;5011254;28;20275;-61
2021/04/25 02:10:20;;;;;;;8.33;6.00;;;;;;;;;;5002907;28;20244;-60
2021/04/25 02:12:46;;;;;;;9.23;5.93;;;;;;;;;;5005742;28;20623;-60
2021/04/25 02:15:13;;;;;;;12.40;6.97;;;;;;;;;;5013791;28;20185;-61
2021/04/25 02:17:41;;;;;;;11.03;6.17;;;;;;;;;;5001639;28;20191;-60
2021/04/25 02:20:08;;;;;;;8.33;6.70;;;;;;;;;;5000488;28;20613;-61
2021/04/25 02:22:34;;;;;;;11.37;5.70;;;;;;;;;;5012262;28;20222;-63
2021/04/25 02:25:00;;;;;;;8.40;6.90;;;;;;;;;;5006797;28;20192;-63
2021/04/25 02:27:26;;;;;;;8.03;6.10;;;;;;;;;;4999471;28;20228;-61
2021/04/25 02:29:52;;;;;;;10.17;6.60;;;;;;;;;;5003327;28;20213;-62
2021/04/25 02:32:18;;;;;;;10.40;6.50;;;;;;;;;;5003622;28;20220;-63
2021/04/25 02:34:44;;;;;;;9.47;6.57;;;;;;;;;;5004258;28;20217;-63
2021/04/25 02:37:10;;;;;;;7.97;6.00;;;;;;;;;;5004639;28;20189;-61
2021/04/25 02:39:36;;;;;;;8.17;5.93;;;;;;;;;;5002232;28;21953;-61
2021/04/25 02:42:02;;;;;;;7.67;6.33;;;;;;;;;;5008017;28;20221;-62
2021/04/25 02:44:28;;;;;;;7.40;6.43;;;;;;;;;;5000866;28;20184;-62
2021/04/25 02:46:54;;;;;;;9.77;6.60;;;;;;;;;;5006369;28;20667;-62
2021/04/25 02:49:20;;;;;;;7.80;6.27;;;;;;;;;;5002165;28;20289;-62
2021/04/25 02:51:47;;;;;;;9.50;6.73;;;;;;;;;;5004131;28;20223;-61
2021/04/25 02:54:13;;;;;;;8.80;6.80;;;;;;;;;;4998515;28;20184;-61
2021/04/25 02:56:39;;;;;;;10.70;7.37;;;;;;;;;;5003961;28;20186;-63
2021/04/25 02:59:05;;;;;;;13.10;7.23;;;;;;;;;;5002739;28;20220;-61
2021/04/25 03:01:31;;;;;;;7.40;6.43;;;;;;;;;;5003444;28;20668;-61
2021/04/25 03:03:57;;;;;;;8.00;6.63;;;;;;;;;;4999651;28;20263;-63
2021/04/25 03:06:23;;;;;;;10.90;7.07;;;;;;;;;;5010792;28;20191;-62
2021/04/25 03:08:49;;;;;;;7.67;6.07;;;;;;;;;;5008236;28;20223;-62
2021/04/25 03:11:15;;;;;;;7.93;6.03;;;;;;;;;;4993833;28;20604;-62
2021/04/25 03:13:41;;;;;;;6.87;6.17;;;;;;;;;;5007331;28;20176;-62
2021/04/25 03:16:07;;;;;;;13.53;6.73;;;;;;;;;;5002794;28;20189;-62
2021/04/25 03:18:33;;;;;;;9.10;6.50;;;;;;;;;;5000177;28;20219;-62
2021/04/25 03:20:59;;;;;;;10.30;6.70;;;;;;;;;;5003649;28;20196;-63
2021/04/25 03:23:25;;;;;;;9.10;7.50;;;;;;;;;;5007418;28;20706;-62
2021/04/25 03:25:50;;;;;;;9.40;7.10;;;;;;;;;;5005267;28;20208;-63
2021/04/25 03:28:16;;;;;;;11.17;7.53;;;;;;;;;;4998190;28;20213;-63
2021/04/25 03:30:42;;;;;;;8.50;6.53;;;;;;;;;;5005211;28;20219;-62
2021/04/25 03:33:08;;;;;;;8.87;7.13;;;;;;;;;;4999140;28;20652;-61
2021/04/25 03:35:34;;;;;;;10.07;6.60;;;;;;;;;;5003118;28;20185;-61
2021/04/25 03:38:00;;;;;;;8.93;6.20;;;;;;;;;;5004763;28;20204;-62
2021/04/25 03:40:27;;;;;;;7.23;6.50;;;;;;;;;;5005381;28;20195;-62
2021/04/25 03:42:53;;;;;;;8.73;7.07;;;;;;;;;;5002582;28;20285;-61
2021/04/25 03:45:19;;;;;;;10.00;7.17;;;;;;;;;;5015296;28;21032;-61
2021/04/25 03:47:47;;;;;;;10.87;7.10;;;;;;;;;;5000960;28;20690;-60
2021/04/25 03:50:13;;;;;;;10.37;7.03;;;;;;;;;;5005443;28;20256;-60
2021/04/25 03:52:41;;;;;;;11.07;7.00;;;;;;;;;;5008336;28;20219;-60
2021/04/25 03:55:07;;;;;;;9.63;6.87;;;;;;;;;;5003785;28;20188;-61
2021/04/25 03:57:33;;;;;;;8.77;7.10;;;;;;;;;;5002730;28;20206;-61
2021/04/25 04:00:00;;;;;;;8.97;6.50;;;;;;;;;;4999108;28;20371;-63
2021/04/25 04:02:26;;;;;;;7.63;6.67;;;;;;;;;;5002647;28;20224;-62
2021/04/25 04:04:52;;;;;;;9.53;6.37;;;;;;;;;;4999482;28;20191;-62
2021/04/25 04:07:18;;;;;;;10.40;6.97;;;;;;;;;;4999760;28;20192;-63
2021/04/25 04:09:44;;;;;;;10.97;7.10;;;;;;;;;;5005500;28;20237;-62
2021/04/25 04:12:11;;;;;;;9.30;7.03;;;;;;;;;;5006550;28;20626;-62
2021/04/25 04:14:37;;;;;;;7.73;6.70;;;;;;;;;;5005851;28;20200;-62
2021/04/25 04:17:03;;;;;;;9.23;6.53;;;;;;;;;;4999613;28;20196;-62
2021/04/25 04:19:29;;;;;;;10.40;6.73;;;;;;;;;;5008704;28;20243;-62
2021/04/25 04:21:55;;;;;;;9.97;6.83;;;;;;;;;;4994691;28;20626;-61
2021/04/25 04:24:22;;;;;;;8.83;7.10;;;;;;;;;;4999092;28;20200;-61
2021/04/25 04:26:48;;;;;;;12.23;7.27;;;;;;;;;;5003389;28;20208;-62
2021/04/25 04:29:14;;;;;;;10.43;7.40;;;;;;;;;;5000786;28;20216;-62
2021/04/25 04:31:40;;;;;;;8.67;6.90;;;;;;;;;;5002592;28;20700;-61
2021/04/25 04:34:06;;;;;;;12.03;7.60;;;;;;;;;;5004750;28;20265;-62
2021/04/25 04:36:32;;;;;;;9.90;6.57;;;;;;;;;;5003834;28;20749;-64
2021/04/25 04:38:58;;;;;;;9.53;6.87;;;;;;;;;;5001251;28;20767;-61
2021/04/25 04:41:24;;;;;;;10.03;7.57;;;;;;;;;;5003986;28;20202;-62
2021/04/25 04:43:50;;;;;;;9.77;7.43;;;;;;;;;;5009685;28;20233;-63
2021/04/25 04:46:16;;;;;;;10.87;7.47;;;;;;;;;;5006733;28;20192;-62
2021/04/25 04:48:42;;;;;;;12.17;7.37;;;;;;;;;;5008887;28;20220;-63
2021/04/25 04:51:08;;;;;;;15.47;8.83;;;;;;;;;;5006494;28;20192;-62
2021/04/25 04:53:34;;;;;;;11.47;8.37;;;;;;;;;;5006774;28;20665;-62
2021/04/25 04:56:00;;;;;;;12.67;8.43;;;;;;;;;;5001259;28;20189;-63
2021/04/25 04:58:26;;;;;;;9.97;7.40;;;;;;;;;;5009411;28;20212;-60
2021/04/25 05:00:52;;;;;;;13.03;7.50;;;;;;;;;;5006751;28;20191;-61
2021/04/25 05:03:18;;;;;;;10.03;7.20;;;;;;;;;;5004022;28;20185;-60
2021/04/25 05:05:44;;;;;;;9.60;7.53;;;;;;;;;;5007403;28;20197;-62
2021/04/25 05:08:10;;;;;;;12.00;7.40;;;;;;;;;;5004069;28;20746;-61
2021/04/25 05:10:36;;;;;;;7.90;7.00;;;;;;;;;;5006256;28;20319;-61
2021/04/25 05:13:02;;;;;;;8.47;6.77;;;;;;;;;;5004093;28;20229;-62
2021/04/25 05:15:28;;;;;;;9.40;7.13;;;;;;;;;;5004028;28;20194;-61
2021/04/25 05:17:54;;;;;;;7.73;6.93;;;;;;;;;;5006501;28;20237;-62
2021/04/25 05:20:20;;;;;;;7.47;6.63;;;;;;;;;;5002352;28;20203;-61
2021/04/25 05:22:46;;;;;;;11.30;7.60;;;;;;;;;;5003086;28;20197;-62
2021/04/25 05:25:12;;;;;;;10.97;7.13;;;;;;;;;;5015251;28;21079;-64
2021/04/25 05:27:38;;;;;;;10.73;7.17;;;;;;;;;;5004796;28;20202;-61
2021/04/25 05:30:04;;;;;;;11.93;7.50;;;;;;;;;;5006760;28;20266;-61
2021/04/25 05:32:30;;;;;;;12.83;7.20;;;;;;;;;;5000658;28;20224;-63
2021/04/25 05:34:56;;;;;;;10.03;6.80;;;;;;;;;;5013969;28;20272;-63
2021/04/25 05:37:22;;;;;;;11.70;8.17;;;;;;;;;;5001981;28;20260;-63
2021/04/25 05:39:48;;;;;;;7.77;6.70;;;;;;;;;;5007073;28;20213;-63
2021/04/25 05:42:14;;;;;;;8.23;6.20;;;;;;;;;;5003180;28;20200;-62
2021/04/25 05:44:40;;;;;;;11.30;8.17;;;;;;;;;;5007468;28;20251;-62
2021/04/25 05:47:06;;;;;;;9.30;7.20;;;;;;;;;;5004516;28;20189;-63
2021/04/25 05:49:32;;;;;;;7.93;7.13;;;;;;;;;;5005338;28;20291;-63
2021/04/25 05:51:58;;;;;;;9.40;7.80;;;;;;;;;;5006997;28;20671;-62
2021/04/25 05:54:24;;;;;;;10.93;7.60;;;;;;;;;;5006095;28;20296;-61
2021/04/25 05:56:50;;;;;;;9.27;7.50;;;;;;;;;;5003542;28;20184;-61
2021/04/25 05:59:16;;;;;;;9.70;8.17;;;;;;;;;;5006089;28;20209;-63
2021/04/25 06:01:42;;;;;;;10.80;8.30;;;;;;;;;;4997697;28;20222;-62
2021/04/25 06:04:08;;;;;;;9.77;7.27;;;;;;;;;;5003668;28;20277;-62
2021/04/25 06:06:34;;;;;;;8.67;7.77;;;;;;;;;;5012441;28;20262;-63
2021/04/25 06:09:01;;;;;;;11.33;8.03;;;;;;;;;;5004239;28;20220;-61
2021/04/25 06:11:27;;;;;;;10.37;7.80;;;;;;;;;;5000751;28;20213;-62
2021/04/25 06:13:53;;;;;;;8.87;7.83;;;;;;;;;;4997002;28;20190;-61
2021/04/25 06:16:19;;;;;;;10.63;7.90;;;;;;;;;;5001439;28;20653;-61
2021/04/25 06:18:45;;;;;;;12.00;7.90;;;;;;;;;;5004553;28;20216;-62
2021/04/25 06:21:11;;;;;;;10.57;7.40;;;;;;;;;;4998917;28;20185;-61
2021/04/25 06:23:37;;;;;;;11.03;7.80;;;;;;;;;;5001852;28;20196;-63
2021/04/25 06:26:04;;;;;;;10.95;8.63;;;;;;;;;;5005210;28;21173;-64
2021/04/25 06:28:30;;;;;;;9.13;7.33;;;;;;;;;;4999457;28;20201;-64
2021/04/25 06:30:59;;;;;;;8.37;7.13;;;;;;;;;;5002480;28;20264;-63
2021/04/25 06:33:25;;;;;;;11.55;7.65;;;;;;;;;;5004601;28;20243;-63
2021/04/25 06:35:52;;;;;;;15.90;7.97;;;;;;;;;;5004668;28;20189;-64
2021/04/25 06:38:18;;;;;;;11.13;7.47;;;;;;;;;;5004954;28;20576;-62
2021/04/25 06:40:44;;;;;;;11.40;7.53;;;;;;;;;;5008954;28;20376;-61
2021/04/25 06:43:11;;;;;;;10.43;8.48;;;;;;;;;;5008135;28;20888;-64
2021/04/25 06:45:37;;;;;;;9.48;8.55;;;;;;;;;;5003144;28;20526;-59
2021/04/25 06:48:03;;;;;;;10.98;8.40;;;;;;;;;;5000571;28;20201;-65
2021/04/25 06:50:29;;;;;;;9.40;7.05;;;;;;;;;;5001952;28;20240;-66
2021/04/25 06:52:55;;;;;;;10.23;7.55;;;;;;;;;;5005152;28;20204;-65
2021/04/25 06:55:23;;;;;;;11.82;8.95;;;;;;;;;;5004621;28;20500;-65
2021/04/25 06:57:49;;;;;;;11.15;8.40;;;;;;;;;;5003713;28;20685;-64
2021/04/25 07:00:16;;;;;;;12.90;9.18;;;;;;;;;;5004467;28;20656;-67
2021/04/25 07:02:42;;;;;;;10.98;8.02;;;;;;;;;;5007109;28;20243;-67
2021/04/25 07:05:08;;;;;;;10.77;8.75;;;;;;;;;;5004220;28;20279;-66
2021/04/25 07:07:35;;;;;;;13.57;8.70;;;;;;;;;;5001203;28;20196;-67
2021/04/25 07:10:02;;;;;;;11.85;8.27;;;;;;;;;;5001246;28;21067;-67
2021/04/25 07:12:28;;;;;;;12.20;9.63;;;;;;;;;;5003442;28;20434;-66
2021/04/25 07:14:56;;;;;;;11.35;9.32;;;;;;;;;;5002165;28;20511;-68
2021/04/25 07:17:22;;;;;;;11.05;8.77;;;;;;;;;;5002975;28;20680;-66
2021/04/25 07:19:48;;;;;;;11.48;8.52;;;;;;;;;;5000891;28;20212;-66
2021/04/25 07:22:14;;;;;;;13.20;10.23;;;;;;;;;;4999842;28;20431;-67
2021/04/25 07:24:40;;;;;;;14.35;10.23;;;;;;;;;;5003124;28;20527;-66
2021/04/25 07:27:06;;;;;;;10.02;8.90;;;;;;;;;;5004428;28;20205;-66
2021/04/25 07:29:32;;;;;;;10.98;9.68;;;;;;;;;;5003665;28;20216;-67
2021/04/25 07:31:59;;;;;;;12.75;8.65;;;;;;;;;;5005321;28;20212;-65
2021/04/25 07:34:25;;;;;;;10.50;8.98;;;;;;;;;;4997789;28;20687;-66
2021/04/25 07:36:52;;;;;;;12.50;9.13;;;;;;;;;;5000347;28;20671;-66
2021/04/25 07:39:18;;;;;;;9.85;8.60;;;;;;;;;;5000692;28;20213;-66
2021/04/25 07:41:44;;;;;;;13.35;10.15;;;;;;;;;;4999171;28;20181;-65
2021/04/25 07:44:10;;;;;;;12.25;9.25;;;;;;;;;;5001134;28;20208;-66
2021/04/25 07:46:36;;;;;;;14.95;8.98;;;;;;;;;;5000066;28;20182;-66
2021/04/25 07:49:02;;;;;;;14.65;9.15;;;;;;;;;;4998968;28;20205;-66
2021/04/25 07:51:28;;;;;;;14.65;9.30;;;;;;;;;;5003080;28;20574;-66
2021/04/25 07:53:55;;;;;;;12.38;10.10;;;;;;;;;;5004279;28;20662;-63
2021/04/25 07:56:21;;;;;;;13.57;8.82;;;;;;;;;;5000557;28;20181;-66
2021/04/25 07:58:48;;;;;;;10.13;8.77;;;;;;;;;;5005150;28;20255;-65
2021/04/25 08:01:15;;;;;;;13.07;8.85;;;;;;;;;;5000300;28;20695;-65
2021/04/25 08:03:41;;;;;;;11.43;8.93;;;;;;;;;;5005164;28;20219;-65
2021/04/25 08:06:07;;;;;;;10.43;8.30;;;;;;;;;;4997823;28;20209;-65
2021/04/25 08:08:33;;;;;;;12.32;9.13;;;;;;;;;;5001023;28;20247;-65
2021/04/25 08:11:00;;;;;;;10.10;8.65;;;;;;;;;;5005403;28;20187;-65
2021/04/25 08:13:26;;;;;;;9.68;8.68;;;;;;;;;;5002964;28;20200;-65
2021/04/25 08:15:53;;;;;;;10.90;9.02;;;;;;;;;;4999164;28;20743;-65
2021/04/25 08:18:19;;;;;;;11.75;9.10;;;;;;;;;;5011622;28;20204;-66
2021/04/25 08:20:45;;;;;;;13.40;8.40;;;;;;;;;;5001144;28;20269;-65
2021/04/25 08:23:11;;;;;;;11.95;8.85;;;;;;;;;;5000257;28;20732;-65
2021/04/25 08:25:37;;;;;;;12.25;9.00;;;;;;;;;;5005836;28;20257;-65
2021/04/25 08:28:03;;;;;;;10.00;8.73;;;;;;;;;;5002564;28;20247;-65
2021/04/25 08:30:29;;;;;;;12.02;8.82;;;;;;;;;;5004924;28;20189;-65
2021/04/25 08:32:55;;;;;;;10.55;8.43;;;;;;;;;;5002590;28;20766;-65
2021/04/25 08:35:21;;;;;;;12.85;9.13;;;;;;;;;;4997963;28;20264;-66
2021/04/25 08:37:47;;;;;;;11.63;9.13;;;;;;;;;;5005706;28;20680;-65
2021/04/25 08:40:14;;;;;;;9.73;8.27;;;;;;;;;;5005367;28;20328;-65
2021/04/25 08:42:40;;;;;;;10.30;8.68;;;;;;;;;;5000335;28;20177;-65
2021/04/25 08:45:06;;;;;;;11.60;8.70;;;;;;;;;;5001273;28;20276;-65
2021/04/25 08:47:38;;;;;;;10.95;8.70;;;;;;;;;;5000287;28;20190;-65
2021/04/25 08:50:04;;;;;;;10.23;8.38;;;;;;;;;;5007771;28;20196;-65
2021/04/25 08:52:30;;;;;;;11.45;8.75;;;;;;;;;;5003897;28;20215;-65
2021/04/25 08:54:57;;;;;;;11.13;9.10;;;;;;;;;;5004918;28;20177;-65
2021/04/25 08:57:23;;;;;;;11.48;9.20;;;;;;;;;;5000216;28;20184;-65
2021/04/25 08:59:49;;;;;;;12.30;9.32;;;;;;;;;;4999048;28;20806;-64
2021/04/25 09:02:15;;;;;;;13.05;9.05;;;;;;;;;;5006187;28;20189;-64
2021/04/25 09:04:41;;;;;;;14.43;8.85;;;;;;;;;;5004148;28;20185;-65
2021/04/25 09:07:13;;;;;;;11.50;8.98;;;;;;;;;;4999794;28;20554;-64
2021/04/25 09:09:49;;;;;;;11.88;8.95;;;;;;;;;;5002709;28;20688;-65
2021/04/25 09:12:34;;;;;;;13.30;9.48;;;;;;;;;;4999046;28;20209;-65
2021/04/25 09:15:01;;;;;;;15.13;8.95;;;;;;;;;;4997923;28;20181;-66
2021/04/25 09:17:27;;;;;;;10.38;8.15;;;;;;;;;;4999551;28;20224;-64
2021/04/25 09:19:54;;;;;;;10.40;8.05;;;;;;;;;;5000687;28;20822;-65
2021/04/25 09:22:22;;;;;;;10.93;7.97;;;;;;;;;;4999732;28;20201;-63
2021/04/25 09:24:48;;;;;;;19.55;16.30;;;;;;;;;;5001254;28;20199;-65
2021/04/25 09:27:27;;;;;;;12.32;8.93;;;;;;;;;;5002525;28;20217;-65
2021/04/25 09:30:00;;;;;;;10.15;7.60;;;;;;;;;;5007519;28;20695;-65
2021/04/25 09:32:28;;;;;;;11.43;9.10;;;;;;;;;;5005570;28;20208;-65
2021/04/25 09:35:13;;;;;;;13.00;8.80;;;;;;;;;;5008780;28;20254;-66
2021/04/25 09:37:44;;;;;;;14.68;8.95;;;;;;;;;;5011313;28;20499;-65
2021/04/25 09:40:15;;;;;;;12.63;8.50;;;;;;;;;;5010172;28;20220;-65
2021/04/25 09:42:59;;;;;;;13.00;8.48;;;;;;;;;;5006350;28;20541;-65
2021/04/25 09:45:32;;;;;;;10.65;8.20;;;;;;;;;;5010992;28;20176;-65
2021/04/25 09:48:00;;;;;;;11.43;8.18;;;;;;;;;;5010755;28;20558;-66
2021/04/25 09:50:28;;;;;;;9.60;7.57;;;;;;;;;;5012191;28;20699;-65
2021/04/25 09:52:54;;;;;;;9.50;7.63;;;;;;;;;;5019704;28;20227;-65
2021/04/25 09:55:27;;;;;;;8.85;7.05;;;;;;;;;;5014027;28;20260;-65
2021/04/25 09:57:55;;;;;;;9.77;7.78;;;;;;;;;;5008077;28;20185;-65
2021/04/25 10:00:21;;;;;;;10.85;7.47;;;;;;;;;;5011862;28;20185;-64
2021/04/25 10:03:10;;;;;;;12.48;8.07;;;;;;;;;;5011970;28;20192;-65
2021/04/25 10:05:37;;;;;;;10.90;7.28;;;;;;;;;;5008589;28;20228;-65
2021/04/25 10:08:03;;;;;;;10.43;7.53;;;;;;;;;;5010083;28;20574;-65
2021/04/25 10:10:30;;;;;;;10.27;7.18;;;;;;;;;;5005311;28;20185;-66
2021/04/25 10:12:56;;;;;;;11.02;8.05;;;;;;;;;;5005125;28;20648;-65
2021/04/25 10:15:22;;;;;;;11.32;7.45;;;;;;;;;;5011617;28;20541;-65
2021/04/25 10:17:50;;;;;;;8.02;7.25;;;;;;;;;;5006694;28;20268;-66
2021/04/25 10:20:17;;;;;;;12.10;7.72;;;;;;;;;;5001529;28;20184;-66
2021/04/25 10:22:44;;;;;;;10.52;7.85;;;;;;;;;;5004810;28;20600;-65
2021/04/25 10:25:11;;;;;;;9.40;7.35;;;;;;;;;;5008036;28;20184;-65
2021/04/25 10:27:38;;;;;;;8.57;7.13;;;;;;;;;;5009780;28;20185;-65
2021/04/25 10:30:05;;;;;;;10.32;7.55;;;;;;;;;;5008676;28;20209;-65
2021/04/25 10:32:31;;;;;;;8.57;6.47;;;;;;;;;;5010421;28;20568;-65
2021/04/25 10:35:12;;;;;;;7.90;6.50;;;;;;;;;;5005736;28;20283;-64
2021/04/25 10:37:40;;;;;;;9.23;7.18;;;;;;;;;;5007144;28;20216;-65
2021/04/25 10:40:20;;;;;;;8.40;6.38;;;;;;;;;;5008987;28;20672;-65
2021/04/25 10:42:56;;;;;;;7.95;6.47;;;;;;;;;;5003864;28;20219;-66
2021/04/25 10:45:28;;;;;;;6.20;5.60;;;;;;;;;;5004352;28;20719;-66
2021/04/25 10:48:33;;;;;;;8.13;5.80;;;;;;;;;;5006383;28;20351;-65
2021/04/25 10:50:59;;;;;;;10.07;6.28;;;;;;;;;;4971562;28;20197;-67
2021/04/25 10:53:29;;;;;;;7.60;6.45;;;;;;;;;;4969845;28;20657;-65
2021/04/25 10:56:13;;;;;;;6.38;5.70;;;;;;;;;;4968686;28;20198;-65
2021/04/25 10:58:42;;;;;;;7.40;5.72;;;;;;;;;;4969228;28;20202;-65
2021/04/25 11:01:08;;;;;;;7.15;6.05;;;;;;;;;;4971262;28;20201;-64
2021/04/25 11:03:36;;;;;;;7.28;5.72;;;;;;;;;;4970719;28;20202;-67
2021/04/25 11:06:02;;;;;;;7.95;6.10;;;;;;;;;;4971964;28;20194;-65
2021/04/25 11:08:31;;;;;;;7.93;6.47;;;;;;;;;;4969733;28;20799;-65
2021/04/25 11:11:07;;;;;;;8.15;5.90;;;;;;;;;;4969026;28;20201;-65
2021/04/25 11:16:14;;;;;;;6.75;5.18;;;;;;;;;;4969446;28;20281;-65
2021/04/25 11:18:49;;;;;;;9.32;4.97;;;;;;;;;;4971767;28;20201;-65
2021/04/25 11:21:21;;;;;;;7.72;5.85;;;;;;;;;;4979475;28;20200;-65
2021/04/25 11:23:47;;;;;;;6.82;5.40;;;;;;;;;;5004116;28;20236;-65
2021/04/25 11:26:32;;;;;;;7.88;5.88;;;;;;;;;;5002248;28;20189;-65
2021/04/25 11:29:00;;;;;;;6.80;5.38;;;;;;;;;;5003832;28;20201;-66
2021/04/25 11:34:26;;;;;;;6.53;5.30;;;;;;;;;;5001353;28;20209;-65
2021/04/25 11:37:02;;;;;;;5.50;4.88;;;;;;;;;;5001178;28;20185;-64
2021/04/25 11:39:29;;;;;;;6.53;4.90;;;;;;;;;;5001472;28;20211;-64
2021/04/25 11:41:55;;;;;;;6.57;4.78;;;;;;;;;;5005961;28;20248;-64
2021/04/25 11:44:25;;;;;;;6.45;5.50;;;;;;;;;;5000392;28;20213;-64
2021/04/25 11:46:51;;;;;;;5.95;4.78;;;;;;;;;;5003018;28;20189;-64
2021/04/25 11:49:17;;;;;;;7.70;4.70;;;;;;;;;;5004913;28;20296;-64
2021/04/25 11:51:43;;;;;;;5.78;5.03;;;;;;;;;;5004952;28;20589;-64
2021/04/25 11:54:22;;;;;;;5.78;4.57;;;;;;;;;;5004693;28;20615;-64
2021/04/25 11:56:48;;;;;;;8.10;5.00;;;;;;;;;;5008034;28;20180;-64
2021/04/25 11:59:16;;;;;;;5.97;4.97;;;;;;;;;;5002780;28;20197;-65
2021/04/25 12:01:42;;;;;;;7.72;5.22;;;;;;;;;;5000159;28;20271;-64
2021/04/25 12:04:08;;;;;;;7.05;5.72;;;;;;;;;;5007369;28;20248;-65
2021/04/25 12:06:50;;;;;;;10.02;5.63;;;;;;;;;;5007656;28;20185;-65
2021/04/25 12:09:16;;;;;;;5.93;5.13;;;;;;;;;;4997687;28;20692;-64
2021/04/25 12:11:43;;;;;;;6.22;5.40;;;;;;;;;;5009011;28;20217;-63
2021/04/25 12:14:16;;;;;;;6.80;5.18;;;;;;;;;;5008171;28;20673;-64
2021/04/25 12:16:42;;;;;;;8.15;4.70;;;;;;;;;;5002195;28;20180;-63
2021/04/25 12:19:20;;;;;;;5.85;4.78;;;;;;;;;;4998779;28;20789;-63
2021/04/25 12:21:46;;;;;;;6.43;4.63;;;;;;;;;;5003429;28;20252;-64
2021/04/25 12:24:12;;;;;;;5.40;4.93;;;;;;;;;;5000161;28;20609;-64
2021/04/25 12:26:43;;;;;;;7.68;5.80;;;;;;;;;;5001837;28;20726;-64
2021/04/25 12:29:10;;;;;;;7.60;4.93;;;;;;;;;;5000268;28;20216;-64
2021/04/25 12:31:43;;;;;;;6.75;4.75;;;;;;;;;;5005356;28;20217;-64
2021/04/25 12:34:13;;;;;;;8.43;4.40;;;;;;;;;;5004033;28;20183;-64
2021/04/25 12:36:47;;;;;;;6.68;4.88;;;;;;;;;;4996729;28;20253;-64
2021/04/25 12:39:13;;;;;;;4.93;4.00;;;;;;;;;;5002862;28;20299;-64
2021/04/25 12:41:44;;;;;;;5.28;4.30;;;;;;;;;;5004319;28;20293;-64
2021/04/25 12:44:11;;;;;;;6.10;4.82;;;;;;;;;;5000663;28;20252;-64
2021/04/25 12:46:37;;;;;;;11.75;10.63;;;;;;;;;;5003613;28;20196;-64
2021/04/25 12:49:05;;;;;;;5.85;4.30;;;;;;;;;;5001643;28;20217;-64
2021/04/25 12:51:45;;;;;;;11.73;9.98;;;;;;;;;;5006406;28;20221;-64
2021/04/25 12:54:13;;;;;;;6.72;4.90;;;;;;;;;;5000320;28;20170;-64
2021/04/25 12:56:43;;;;;;;5.57;3.83;;;;;;;;;;5003960;28;20264;-64
2021/04/25 12:59:34;;;;;;;9.52;3.63;;;;;;;;;;5000171;28;20576;-64
2021/04/25 13:02:00;;;;;;;4.35;3.10;;;;;;;;;;5007932;28;20196;-64
2021/04/25 13:04:35;;;;;;;5.07;3.20;;;;;;;;;;5008644;28;20189;-65
2021/04/25 13:07:17;;;;;;;3.72;2.42;;;;;;;;;;5007153;28;20230;-65
2021/04/25 13:09:44;;;;;;;3.38;2.90;;;;;;;;;;5001302;28;20635;-64
2021/04/25 13:12:17;;;;;;;4.80;3.20;;;;;;;;;;5005504;28;20599;-64
2021/04/25 13:15:10;;;;;;;5.22;3.22;;;;;;;;;;5006264;28;20228;-64
2021/04/25 13:17:37;;;;;;;3.17;2.88;;;;;;;;;;5004618;28;20236;-70
2021/04/25 13:20:26;;;;;;;3.97;2.78;;;;;;;;;;5009050;28;20200;-65
2021/04/25 13:22:57;;;;;;;5.25;3.00;;;;;;;;;;5002869;28;20614;-65
2021/04/25 13:25:24;;;;;;;3.13;2.60;;;;;;;;;;5008239;28;20684;-65
2021/04/25 13:27:50;;;;;;;4.40;2.80;;;;;;;;;;5000395;28;20201;-64
2021/04/25 13:30:17;;;;;;;4.45;2.40;;;;;;;;;;5008708;28;20177;-64
2021/04/25 13:32:43;;;;;;;4.43;2.60;;;;;;;;;;5005896;28;20264;-64
2021/04/25 13:35:10;;;;;;;4.03;2.70;;;;;;;;;;5007862;28;20182;-64
2021/04/25 13:37:36;;;;;;;4.78;2.70;;;;;;;;;;5008707;28;20585;-64
2021/04/25 13:40:02;;;;;;;2.78;2.47;;;;;;;;;;5011833;28;20201;-64
2021/04/25 13:42:28;;;;;;;5.57;2.80;;;;;;;;;;5009444;28;20236;-64
2021/04/25 13:44:54;;;;;;;4.22;2.65;;;;;;;;;;5003547;28;20319;-64
2021/04/25 13:47:20;;;;;;;4.20;2.30;;;;;;;;;;5002764;28;20292;-64
2021/04/25 13:49:46;;;;;;;4.75;2.53;;;;;;;;;;5010356;28;20312;-64
2021/04/25 13:52:12;;;;;;;2.65;2.38;;;;;;;;;;5004463;28;20209;-64
2021/04/25 13:54:38;;;;;;;3.60;2.50;;;;;;;;;;5008997;28;20200;-65
2021/04/25 13:57:04;;;;;;;3.03;2.40;;;;;;;;;;5009376;28;20193;-64
2021/04/25 13:59:30;;;;;;;4.43;2.67;;;;;;;;;;5007360;28;20653;-64
2021/04/25 14:01:56;;;;;;;2.67;2.38;;;;;;;;;;5001674;28;20273;-65
2021/04/25 14:04:23;;;;;;;4.97;2.42;;;;;;;;;;5006984;28;20193;-64
2021/04/25 14:06:49;;;;;;;2.42;2.00;;;;;;;;;;5010030;28;20733;-64
2021/04/25 14:09:17;;;;;;;3.40;2.65;;;;;;;;;;5004077;28;20212;-64
2021/04/25 14:11:43;;;;;;;6.07;2.60;;;;;;;;;;5009928;28;20227;-64
2021/04/25 14:14:09;;;;;;;2.83;2.20;;;;;;;;;;5002592;28;20232;-64
2021/04/25 14:16:35;;;;;;;6.15;2.40;;;;;;;;;;5005758;28;20189;-65
2021/04/25 14:19:02;;;;;;;4.32;2.83;;;;;;;;;;5001500;28;20218;-65
2021/04/25 14:21:28;;;;;;;4.70;2.60;;;;;;;;;;5004408;28;20184;-65
2021/04/25 14:23:54;;;;;;;3.22;2.55;;;;;;;;;;4999551;28;20186;-65
2021/04/25 14:26:20;;;;;;;4.72;2.40;;;;;;;;;;5005062;28;20212;-64
2021/04/25 14:28:46;;;;;;;2.97;2.35;;;;;;;;;;4998662;28;20724;-64
2021/04/25 14:31:12;;;;;;;4.57;2.60;;;;;;;;;;5002665;28;20177;-65
2021/04/25 14:33:38;;;;;;;4.10;2.20;;;;;;;;;;5009856;28;20216;-65
2021/04/25 14:36:08;;;;;;;2.65;2.30;;;;;;;;;;5005678;28;20260;-65
2021/04/25 14:38:34;;;;;;;4.68;2.97;;;;;;;;;;5002509;28;20234;-65
2021/04/25 14:41:03;;;;;;;6.47;2.90;;;;;;;;;;5009256;28;20181;-65
2021/04/25 14:43:29;;;;;;;4.78;2.60;;;;;;;;;;5002936;28;20189;-64
2021/04/25 14:45:55;;;;;;;3.53;2.53;;;;;;;;;;5001938;28;20619;-65